Time;durP1;ratioP1;P1;durP2;ratioP2;P2;SDS_P1;SDS_P2;PMS_P1;PMS_P2;Temp;Humidity;BMP_temperature;BMP_pressure;BME280_temperature;BME280_humidity;BME280_pressure;Samples;Min_cycle;Max_cycle;Signal;HPM_P1;HPM_P2
2022/12/18 00:02:00;;;;;;;6.28;5.88;;;-4.30;99.90;;;;;;5011544;28;20209;-60
2022/12/18 00:04:28;;;;;;;6.28;5.85;;;-4.30;99.90;;;;;;5008239;28;20201;-61
2022/12/18 00:06:54;;;;;;;6.40;5.90;;;-4.20;99.90;;;;;;5006665;28;20293;-61
2022/12/18 00:09:21;;;;;;;6.75;6.20;;;-4.30;99.90;;;;;;5022325;28;20297;-61
2022/12/18 00:11:48;;;;;;;6.50;6.00;;;-4.30;99.90;;;;;;5019894;28;20612;-61
2022/12/18 00:14:17;;;;;;;6.82;6.25;;;-4.30;99.90;;;;;;5006957;28;20682;-61
2022/12/18 00:16:46;;;;;;;7.78;7.07;;;-4.40;99.90;;;;;;4998788;28;20216;-61
2022/12/18 00:19:13;;;;;;;5.97;5.57;;;-4.30;99.90;;;;;;4998994;28;20644;-62
2022/12/18 00:21:40;;;;;;;5.07;4.70;;;-4.40;99.90;;;;;;5001140;28;20210;-62
2022/12/18 00:24:07;;;;;;;6.37;5.83;;;-4.30;99.90;;;;;;5003097;28;20205;-61
2022/12/18 00:26:35;;;;;;;6.63;6.20;;;-4.30;99.90;;;;;;4999889;28;20232;-61
2022/12/18 00:29:03;;;;;;;6.55;6.05;;;-4.40;99.90;;;;;;5000281;28;20226;-62
2022/12/18 00:31:32;;;;;;;6.35;5.95;;;-4.40;99.90;;;;;;5005118;28;20205;-62
2022/12/18 00:33:59;;;;;;;5.63;5.22;;;-4.50;99.90;;;;;;5001126;28;20305;-61
2022/12/18 00:36:29;;;;;;;5.63;5.22;;;-4.40;99.90;;;;;;5001745;28;20209;-61
2022/12/18 00:38:57;;;;;;;5.97;5.50;;;-4.30;99.90;;;;;;5000264;28;20222;-61
2022/12/18 00:44:12;;;;;;;6.53;6.03;;;-4.20;99.90;;;;;;5007915;28;20252;-62
2022/12/18 00:46:41;;;;;;;7.10;6.50;;;-4.40;99.90;;;;;;5003032;28;20221;-60
2022/12/18 00:49:07;;;;;;;5.82;5.43;;;-4.50;99.90;;;;;;4998761;28;20229;-61
2022/12/18 00:51:34;;;;;;;5.80;5.40;;;-4.60;99.90;;;;;;5002365;28;20225;-61
2022/12/18 00:54:01;;;;;;;6.17;5.67;;;-4.70;99.90;;;;;;4998337;28;20202;-61
2022/12/18 00:56:28;;;;;;;6.47;6.00;;;-4.60;99.90;;;;;;5002797;28;20555;-60
2022/12/18 00:58:55;;;;;;;6.07;5.57;;;-4.60;99.90;;;;;;4996654;28;20777;-61
2022/12/18 01:01:22;;;;;;;6.20;5.80;;;-4.60;99.90;;;;;;5003734;28;20204;-61
2022/12/18 01:03:50;;;;;;;5.72;5.22;;;-4.60;99.90;;;;;;5000698;28;20773;-60
2022/12/18 01:06:18;;;;;;;6.57;5.97;;;-4.50;99.90;;;;;;4998244;28;20289;-62
2022/12/18 01:08:45;;;;;;;5.80;5.40;;;-4.50;99.90;;;;;;5002069;28;20249;-60
2022/12/18 01:11:15;;;;;;;5.97;5.50;;;-4.50;99.90;;;;;;5002289;28;20209;-61
2022/12/18 01:13:42;;;;;;;5.60;5.10;;;-4.50;99.90;;;;;;4997810;28;20208;-61
2022/12/18 01:16:11;;;;;;;6.30;5.87;;;-4.50;99.90;;;;;;5004190;28;20648;-60
2022/12/18 01:18:38;;;;;;;6.50;6.03;;;-4.30;99.90;;;;;;5001989;28;20699;-60
2022/12/18 01:21:09;;;;;;;6.57;6.00;;;-4.40;99.90;;;;;;5005578;28;20214;-61
2022/12/18 01:23:36;;;;;;;6.17;5.77;;;-4.50;99.90;;;;;;4999547;28;20247;-61
2022/12/18 01:26:07;;;;;;;5.93;5.53;;;-4.50;99.90;;;;;;4996233;28;20198;-61
2022/12/18 01:28:34;;;;;;;6.03;5.57;;;-4.50;99.90;;;;;;5003260;28;20222;-61
2022/12/18 01:31:11;;;;;;;7.47;6.97;;;-4.50;99.90;;;;;;5001171;28;20216;-61
2022/12/18 01:33:38;;;;;;;6.10;5.60;;;-4.50;99.90;;;;;;5002646;28;20261;-61
2022/12/18 01:36:06;;;;;;;5.63;5.15;;;-4.50;99.90;;;;;;5003239;28;20294;-60
2022/12/18 01:38:34;;;;;;;6.00;5.60;;;-4.60;99.90;;;;;;5009411;28;20217;-61
2022/12/18 01:41:01;;;;;;;6.18;5.78;;;-4.50;99.90;;;;;;5005215;28;20300;-62
2022/12/18 01:43:49;;;;;;;6.22;5.72;;;-4.40;99.90;;;;;;5000027;28;20205;-60
2022/12/18 01:46:17;;;;;;;5.63;5.23;;;-4.40;99.90;;;;;;4997588;28;20214;-61
2022/12/18 01:48:45;;;;;;;6.13;5.63;;;-4.40;99.90;;;;;;4997113;28;20321;-62
2022/12/18 01:51:13;;;;;;;5.95;5.55;;;-4.50;99.90;;;;;;5000987;28;20220;-60
2022/12/18 01:53:42;;;;;;;6.33;5.83;;;-4.60;99.90;;;;;;4999554;28;20631;-60
2022/12/18 01:56:12;;;;;;;6.50;6.00;;;-4.60;99.90;;;;;;5000543;28;20245;-61
2022/12/18 01:58:47;;;;;;;6.77;6.27;;;-4.70;99.90;;;;;;5004078;28;20588;-61
2022/12/18 02:01:14;;;;;;;5.70;5.30;;;-4.70;99.90;;;;;;5003946;28;20204;-61
2022/12/18 02:03:43;;;;;;;5.68;5.28;;;-4.70;99.90;;;;;;5000234;28;20339;-61
2022/12/18 02:06:15;;;;;;;6.73;6.23;;;-4.70;99.90;;;;;;5003558;28;20216;-61
2022/12/18 02:08:55;;;;;;;5.67;5.27;;;-4.60;99.90;;;;;;5008701;28;20226;-61
2022/12/18 02:11:32;;;;;;;5.80;5.30;;;-4.40;99.90;;;;;;5015751;28;20197;-61
2022/12/18 02:14:07;;;;;;;5.70;5.27;;;-4.30;99.90;;;;;;5004279;28;20205;-61
2022/12/18 02:16:42;;;;;;;6.47;5.97;;;-4.30;99.90;;;;;;5000836;28;20332;-61
2022/12/18 02:19:23;;;;;;;5.80;5.40;;;-4.40;99.90;;;;;;4998191;28;20222;-61
2022/12/18 02:21:56;;;;;;;5.97;5.57;;;-4.50;99.90;;;;;;5003377;28;20204;-60
2022/12/18 02:24:34;;;;;;;5.80;5.40;;;-4.60;99.90;;;;;;5011340;28;20220;-60
2022/12/18 02:27:05;;;;;;;5.77;5.37;;;-4.60;99.90;;;;;;5013806;28;20263;-61
2022/12/18 02:29:38;;;;;;;5.47;5.07;;;-4.60;99.90;;;;;;5004778;28;20229;-62
2022/12/18 02:32:10;;;;;;;6.07;5.60;;;-4.60;99.90;;;;;;5011873;28;20224;-60
2022/12/18 02:34:40;;;;;;;5.95;5.45;;;-4.60;99.90;;;;;;5017265;28;20208;-61
2022/12/18 02:37:11;;;;;;;4.93;4.63;;;-4.60;99.90;;;;;;5013461;28;20202;-61
2022/12/18 02:39:41;;;;;;;5.00;4.70;;;-4.50;99.90;;;;;;5012543;28;20698;-61
2022/12/18 02:42:09;;;;;;;5.50;5.10;;;-4.50;99.90;;;;;;5012337;28;20201;-61
2022/12/18 02:44:42;;;;;;;5.70;5.30;;;-4.50;99.90;;;;;;5014091;28;20205;-61
2022/12/18 02:47:11;;;;;;;5.40;5.00;;;-4.50;99.90;;;;;;5017814;28;20212;-60
2022/12/18 02:49:49;;;;;;;6.43;5.93;;;-4.40;99.90;;;;;;5013492;28;20228;-60
2022/12/18 02:52:27;;;;;;;6.43;5.93;;;-4.50;99.90;;;;;;5014334;28;20205;-61
2022/12/18 02:55:01;;;;;;;6.50;5.90;;;-4.50;99.90;;;;;;5016068;28;20197;-59
2022/12/18 02:57:36;;;;;;;5.90;5.47;;;-4.60;99.90;;;;;;5017689;28;20201;-61
2022/12/18 03:00:07;;;;;;;6.67;6.17;;;-4.60;99.90;;;;;;5016272;28;20216;-60
2022/12/18 03:02:38;;;;;;;6.18;5.68;;;-4.60;99.90;;;;;;5010722;28;20556;-60
2022/12/18 03:05:11;;;;;;;5.38;5.03;;;-4.70;99.90;;;;;;5011022;28;20218;-60
2022/12/18 03:07:42;;;;;;;5.43;5.03;;;-4.70;99.90;;;;;;5011652;28;20208;-62
2022/12/18 03:10:12;;;;;;;5.05;4.75;;;-4.70;99.90;;;;;;5011984;28;20217;-62
2022/12/18 03:12:45;;;;;;;5.72;5.32;;;-4.70;99.90;;;;;;5015393;28;20194;-60
2022/12/18 03:15:17;;;;;;;5.60;5.20;;;-4.70;99.90;;;;;;5021541;28;20212;-59
2022/12/18 03:17:48;;;;;;;6.97;6.38;;;-4.80;99.90;;;;;;5016852;28;20229;-60
2022/12/18 03:20:19;;;;;;;6.07;5.47;;;-4.80;99.90;;;;;;5015899;28;20203;-60
2022/12/18 03:22:51;;;;;;;5.65;5.25;;;-4.80;99.90;;;;;;5009548;28;20220;-63
2022/12/18 03:25:19;;;;;;;6.13;5.70;;;-4.80;99.90;;;;;;5012332;28;20669;-60
2022/12/18 03:27:53;;;;;;;6.25;5.75;;;-4.80;99.90;;;;;;5012007;28;20253;-61
2022/12/18 03:30:20;;;;;;;5.95;5.45;;;-4.80;99.90;;;;;;5012095;28;20672;-61
2022/12/18 03:32:52;;;;;;;5.68;5.22;;;-4.80;99.90;;;;;;5012423;28;20287;-61
2022/12/18 03:35:23;;;;;;;5.93;5.50;;;-4.90;99.90;;;;;;5016270;28;20208;-61
2022/12/18 03:37:51;;;;;;;5.35;4.90;;;-4.80;99.90;;;;;;5016063;28;20217;-61
2022/12/18 03:40:18;;;;;;;5.07;4.75;;;-4.90;99.90;;;;;;5016438;28;20215;-60
2022/12/18 03:42:52;;;;;;;5.67;5.17;;;-4.90;99.90;;;;;;5010193;28;20205;-60
2022/12/18 03:45:24;;;;;;;5.90;5.50;;;-4.80;99.90;;;;;;5016128;28;20201;-61
2022/12/18 03:48:01;;;;;;;5.77;5.37;;;-4.70;99.90;;;;;;5010140;28;20227;-61
2022/12/18 03:50:37;;;;;;;5.70;5.30;;;-4.70;99.90;;;;;;5015398;28;20320;-60
2022/12/18 03:53:15;;;;;;;6.17;5.70;;;-4.70;99.90;;;;;;5012371;28;20209;-61
2022/12/18 03:55:44;;;;;;;5.90;5.50;;;-4.70;99.90;;;;;;5025359;28;20261;-60
2022/12/18 03:58:17;;;;;;;5.40;5.00;;;-4.70;99.90;;;;;;5031584;28;20225;-61
2022/12/18 04:00:44;;;;;;;5.57;5.13;;;-4.70;99.90;;;;;;5029329;28;20189;-61
2022/12/18 04:03:13;;;;;;;5.30;4.90;;;-4.60;99.90;;;;;;5014505;28;20205;-63
2022/12/18 04:05:41;;;;;;;5.32;4.88;;;-4.60;99.90;;;;;;5015072;28;20207;-61
2022/12/18 04:08:08;;;;;;;5.60;5.20;;;-4.50;99.90;;;;;;5014556;28;20231;-61
2022/12/18 04:10:35;;;;;;;5.77;5.30;;;-4.60;99.90;;;;;;5007753;28;20221;-61
2022/12/18 04:13:01;;;;;;;5.60;5.20;;;-4.50;99.90;;;;;;5014296;28;20231;-61
2022/12/18 04:15:30;;;;;;;5.93;5.43;;;-4.50;99.90;;;;;;5014168;28;20201;-61
2022/12/18 04:17:57;;;;;;;6.20;5.70;;;-4.50;99.90;;;;;;5015064;28;20255;-61
2022/12/18 04:20:23;;;;;;;5.82;5.38;;;-4.50;99.90;;;;;;5017091;28;20288;-60
2022/12/18 04:22:50;;;;;;;5.57;5.10;;;-4.50;99.90;;;;;;5033396;28;20269;-61
2022/12/18 04:25:17;;;;;;;4.88;4.47;;;-4.50;99.90;;;;;;5021155;28;20221;-60
2022/12/18 04:27:44;;;;;;;5.03;4.63;;;-4.60;99.90;;;;;;5013861;28;20653;-61
2022/12/18 04:30:11;;;;;;;6.13;5.63;;;-4.60;99.90;;;;;;5013945;28;20235;-60
2022/12/18 04:32:40;;;;;;;5.65;5.28;;;-4.80;99.90;;;;;;5013496;28;20201;-60
2022/12/18 04:35:10;;;;;;;4.95;4.60;;;-4.90;99.90;;;;;;5013912;28;20285;-61
2022/12/18 04:37:37;;;;;;;5.93;5.50;;;-5.00;99.90;;;;;;5013665;28;20275;-60
2022/12/18 04:40:05;;;;;;;5.75;5.35;;;-5.10;99.90;;;;;;5015141;28;20202;-61
2022/12/18 04:42:31;;;;;;;5.00;4.60;;;-5.00;99.90;;;;;;5014750;28;20715;-61
2022/12/18 04:44:58;;;;;;;5.37;4.83;;;-5.00;99.90;;;;;;5014106;28;20201;-60
2022/12/18 04:47:25;;;;;;;5.05;4.65;;;-5.00;99.90;;;;;;5013484;28;20761;-60
2022/12/18 04:49:53;;;;;;;5.07;4.68;;;-4.90;99.90;;;;;;5013123;28;20229;-62
2022/12/18 04:52:20;;;;;;;5.30;5.00;;;-4.90;99.90;;;;;;5013422;28;20210;-60
2022/12/18 04:54:47;;;;;;;4.68;4.38;;;-4.90;99.90;;;;;;4999460;28;20662;-61
2022/12/18 04:57:14;;;;;;;4.97;4.68;;;-4.90;99.90;;;;;;5013029;28;20221;-61
2022/12/18 04:59:40;;;;;;;5.32;5.03;;;-4.90;99.90;;;;;;5012921;28;20227;-61
2022/12/18 05:02:07;;;;;;;5.10;4.80;;;-5.00;99.90;;;;;;5012768;28;20754;-61
2022/12/18 05:04:34;;;;;;;4.80;4.45;;;-5.10;99.90;;;;;;5012346;28;20215;-59
2022/12/18 05:07:02;;;;;;;4.93;4.63;;;-4.90;99.90;;;;;;5007610;28;20696;-61
2022/12/18 05:09:29;;;;;;;5.18;4.88;;;-4.70;99.90;;;;;;5001948;28;20225;-61
2022/12/18 05:11:56;;;;;;;5.53;5.10;;;-4.80;99.90;;;;;;5003163;28;20201;-60
2022/12/18 05:14:23;;;;;;;5.00;4.60;;;-4.90;99.90;;;;;;5011674;28;20209;-60
2022/12/18 05:16:50;;;;;;;4.57;4.23;;;-4.90;99.90;;;;;;5016341;28;20213;-59
2022/12/18 05:19:16;;;;;;;4.97;4.57;;;-5.00;99.90;;;;;;5016655;28;20221;-60
2022/12/18 05:21:43;;;;;;;3.90;3.70;;;-5.00;99.90;;;;;;5014619;28;20672;-60
2022/12/18 05:24:11;;;;;;;5.10;4.70;;;-5.00;99.90;;;;;;5009956;28;20292;-60
2022/12/18 05:26:38;;;;;;;5.18;4.78;;;-5.00;99.90;;;;;;5012606;28;20209;-60
2022/12/18 05:29:05;;;;;;;4.88;4.57;;;-5.10;99.90;;;;;;5012003;28;20265;-59
2022/12/18 05:31:32;;;;;;;4.35;4.05;;;-5.10;99.90;;;;;;5012115;28;20227;-61
2022/12/18 05:33:59;;;;;;;4.00;3.78;;;-5.10;99.90;;;;;;5012941;28;20205;-61
2022/12/18 05:36:26;;;;;;;5.33;4.93;;;-5.10;99.90;;;;;;5014605;28;20269;-60
2022/12/18 05:38:52;;;;;;;5.15;4.82;;;-5.10;99.90;;;;;;5016240;28;20288;-60
2022/12/18 05:41:21;;;;;;;5.40;5.00;;;-5.20;99.90;;;;;;5017628;28;20253;-60
2022/12/18 05:43:47;;;;;;;4.43;4.13;;;-5.20;99.90;;;;;;5015029;28;20201;-61
2022/12/18 05:46:17;;;;;;;5.63;5.13;;;-5.30;99.90;;;;;;5014995;28;20209;-61
2022/12/18 05:48:45;;;;;;;5.43;5.03;;;-5.30;99.90;;;;;;5015001;28;20311;-61
2022/12/18 05:51:14;;;;;;;5.37;4.97;;;-5.30;99.90;;;;;;5014699;28;20229;-62
2022/12/18 05:53:41;;;;;;;5.03;4.63;;;-5.40;99.90;;;;;;5012585;28;20220;-62
2022/12/18 05:56:10;;;;;;;4.97;4.68;;;-5.50;99.90;;;;;;5012916;28;20201;-61
2022/12/18 05:58:38;;;;;;;4.90;4.50;;;-5.60;99.90;;;;;;5005583;28;20702;-60
2022/12/18 06:01:11;;;;;;;4.80;4.47;;;-5.60;99.90;;;;;;5012959;28;20219;-61
2022/12/18 06:03:37;;;;;;;4.70;4.40;;;-5.60;99.90;;;;;;5010626;28;20288;-62
2022/12/18 06:06:05;;;;;;;5.03;4.63;;;-5.60;99.90;;;;;;5011873;28;20304;-61
2022/12/18 06:08:32;;;;;;;4.78;4.47;;;-5.50;99.90;;;;;;5012697;28;20672;-61
2022/12/18 06:10:58;;;;;;;4.90;4.50;;;-5.60;99.90;;;;;;5012448;28;20218;-61
2022/12/18 06:13:25;;;;;;;4.93;4.63;;;-5.60;99.90;;;;;;5010878;28;20207;-60
2022/12/18 06:15:53;;;;;;;4.53;4.22;;;-5.60;99.90;;;;;;5011782;28;20777;-62
2022/12/18 06:18:20;;;;;;;4.53;4.28;;;-5.50;99.90;;;;;;5012931;28;20271;-59
2022/12/18 06:20:55;;;;;;;4.50;4.20;;;-5.60;99.90;;;;;;5010874;28;20583;-60
2022/12/18 06:23:22;;;;;;;4.72;4.43;;;-5.50;99.90;;;;;;5015880;28;20211;-61
2022/12/18 06:25:49;;;;;;;5.13;4.83;;;-5.60;99.90;;;;;;5012269;28;20207;-60
2022/12/18 06:28:16;;;;;;;4.57;4.23;;;-5.70;99.90;;;;;;5013659;28;20229;-62
2022/12/18 06:30:44;;;;;;;4.97;4.60;;;-5.80;99.90;;;;;;5014500;28;20221;-61
2022/12/18 06:33:12;;;;;;;5.05;4.65;;;-5.80;99.90;;;;;;5014232;28;20205;-59
2022/12/18 06:35:39;;;;;;;5.05;4.65;;;-5.90;99.90;;;;;;5014903;28;20251;-62
2022/12/18 06:38:06;;;;;;;4.63;4.32;;;-5.90;99.90;;;;;;5021048;28;20597;-62
2022/12/18 06:40:33;;;;;;;4.68;4.32;;;-5.90;99.90;;;;;;5020018;28;21020;-61
2022/12/18 06:43:00;;;;;;;4.20;3.90;;;-5.90;99.90;;;;;;5017227;28;20288;-60
2022/12/18 06:45:27;;;;;;;5.20;4.80;;;-6.10;99.90;;;;;;5019677;28;20551;-61
2022/12/18 06:47:54;;;;;;;4.70;4.40;;;-6.10;99.90;;;;;;5017972;28;20225;-61
2022/12/18 06:50:23;;;;;;;4.40;4.10;;;-6.20;99.90;;;;;;5017631;28;20225;-61
2022/12/18 06:52:49;;;;;;;4.80;4.50;;;-6.20;99.90;;;;;;5014682;28;20221;-60
2022/12/18 06:55:16;;;;;;;5.03;4.63;;;-6.40;99.90;;;;;;5012808;28;20228;-60
2022/12/18 06:57:43;;;;;;;4.90;4.55;;;-6.40;99.90;;;;;;5012537;28;20205;-60
2022/12/18 07:00:11;;;;;;;4.97;4.57;;;-6.30;99.90;;;;;;5012303;28;20197;-61
2022/12/18 07:02:38;;;;;;;5.07;4.68;;;-6.20;99.90;;;;;;5011062;28;20207;-60
2022/12/18 07:05:05;;;;;;;4.80;4.40;;;-6.20;99.90;;;;;;5010859;28;20223;-62
2022/12/18 07:07:34;;;;;;;4.93;4.60;;;-6.30;99.90;;;;;;5011663;28;20201;-60
2022/12/18 07:10:01;;;;;;;4.75;4.35;;;-6.30;99.90;;;;;;5015438;28;20209;-61
2022/12/18 07:12:28;;;;;;;4.63;4.32;;;-6.20;99.90;;;;;;5006077;28;20201;-60
2022/12/18 07:14:55;;;;;;;4.53;4.13;;;-6.40;99.90;;;;;;5015003;28;20588;-61
2022/12/18 07:17:22;;;;;;;4.85;4.55;;;-6.50;99.90;;;;;;5014916;28;20299;-59
2022/12/18 07:19:48;;;;;;;5.07;4.68;;;-6.70;99.90;;;;;;5015360;28;20232;-60
2022/12/18 07:22:15;;;;;;;4.10;3.85;;;-6.80;99.90;;;;;;5015877;28;20201;-61
2022/12/18 07:24:43;;;;;;;4.80;4.40;;;-6.80;99.90;;;;;;5014741;28;20208;-61
2022/12/18 07:27:10;;;;;;;4.80;4.50;;;-6.80;99.90;;;;;;5015430;28;20637;-61
2022/12/18 07:29:37;;;;;;;4.97;4.68;;;-6.90;99.90;;;;;;5016130;28;20717;-62
2022/12/18 07:32:04;;;;;;;4.50;4.13;;;-7.00;99.90;;;;;;5014587;28;20350;-62
2022/12/18 07:34:31;;;;;;;4.10;3.90;;;-6.80;99.90;;;;;;5015755;28;20201;-61
2022/12/18 07:36:59;;;;;;;4.10;3.80;;;-6.70;99.90;;;;;;5017088;28;20197;-62
2022/12/18 07:39:25;;;;;;;3.83;3.50;;;-6.60;99.90;;;;;;5017133;28;20320;-62
2022/12/18 07:44:34;;;;;;;4.07;3.78;;;-6.60;99.90;;;;;;5017363;28;20329;-61
2022/12/18 07:47:01;;;;;;;3.92;3.72;;;-6.60;99.90;;;;;;5019593;28;20201;-63
2022/12/18 07:49:28;;;;;;;4.00;3.70;;;-6.70;99.90;;;;;;5020971;28;20232;-63
2022/12/18 07:51:56;;;;;;;3.88;3.67;;;-6.60;99.90;;;;;;5023643;28;20225;-63
2022/12/18 07:54:23;;;;;;;3.77;3.57;;;-6.50;99.90;;;;;;5019263;28;20372;-61
2022/12/18 07:56:50;;;;;;;3.88;3.58;;;-6.40;99.90;;;;;;5020698;28;20269;-62
2022/12/18 07:59:18;;;;;;;3.85;3.58;;;-6.30;99.90;;;;;;5021408;28;20308;-62
2022/12/18 08:01:45;;;;;;;4.05;3.75;;;-6.10;99.90;;;;;;5019456;28;20288;-62
2022/12/18 08:04:12;;;;;;;4.22;3.92;;;-6.10;99.90;;;;;;5009225;28;20209;-63
2022/12/18 08:06:38;;;;;;;3.42;3.22;;;-5.90;99.90;;;;;;5019050;28;20252;-62
2022/12/18 08:09:05;;;;;;;4.40;4.10;;;-5.90;99.90;;;;;;5018442;28;20296;-60
2022/12/18 08:11:32;;;;;;;4.13;3.83;;;-5.90;99.90;;;;;;5017529;28;20217;-62
2022/12/18 08:13:59;;;;;;;3.83;3.53;;;-6.00;99.90;;;;;;5010248;28;20650;-63
2022/12/18 08:16:27;;;;;;;3.80;3.50;;;-6.00;99.90;;;;;;5016037;28;20223;-62
2022/12/18 08:18:55;;;;;;;3.42;3.22;;;-6.00;99.90;;;;;;5014537;28;20228;-61
2022/12/18 08:21:25;;;;;;;4.60;4.30;;;-6.10;99.90;;;;;;5013891;28;20212;-61
2022/12/18 08:23:55;;;;;;;4.00;3.67;;;-6.20;99.90;;;;;;5014127;28;20212;-63
2022/12/18 08:26:22;;;;;;;3.95;3.65;;;-6.30;99.90;;;;;;5014153;28;20667;-63
2022/12/18 08:28:50;;;;;;;4.18;3.88;;;-6.30;99.90;;;;;;5013293;28;20252;-61
2022/12/18 08:31:17;;;;;;;4.50;4.20;;;-6.30;99.90;;;;;;5012898;28;20860;-63
2022/12/18 08:33:45;;;;;;;4.10;3.80;;;-6.40;99.90;;;;;;5012696;28;20582;-62
2022/12/18 08:36:12;;;;;;;4.53;4.23;;;-6.50;99.90;;;;;;5010676;28;20198;-62
2022/12/18 08:38:39;;;;;;;5.25;4.85;;;-6.40;99.90;;;;;;5012716;28;20312;-62
2022/12/18 08:41:08;;;;;;;3.90;3.70;;;-6.20;99.90;;;;;;5014989;28;20201;-63
2022/12/18 08:46:20;;;;;;;3.27;3.07;;;-6.10;99.90;;;;;;5007595;28;20220;-61
2022/12/18 08:48:50;;;;;;;3.40;3.20;;;-6.00;99.90;;;;;;5027271;28;20288;-62
2022/12/18 08:51:17;;;;;;;3.25;3.05;;;-5.90;99.90;;;;;;5023127;28;20296;-61
2022/12/18 08:53:45;;;;;;;3.30;3.10;;;-5.70;99.90;;;;;;5012107;28;20210;-61
2022/12/18 08:56:12;;;;;;;3.10;2.90;;;-5.60;99.90;;;;;;5013721;28;20201;-62
2022/12/18 08:58:39;;;;;;;3.50;3.30;;;-5.50;99.90;;;;;;5012749;28;20229;-62
2022/12/18 09:01:09;;;;;;;4.10;3.80;;;-5.30;99.90;;;;;;5005703;28;20206;-62
2022/12/18 09:03:36;;;;;;;4.50;4.10;;;-5.30;99.90;;;;;;5010951;28;20247;-62
2022/12/18 09:06:05;;;;;;;4.47;4.17;;;-5.30;99.90;;;;;;5012721;28;20209;-62
2022/12/18 09:08:32;;;;;;;4.60;4.25;;;-5.30;99.90;;;;;;5014481;28;20311;-62
2022/12/18 09:10:59;;;;;;;5.47;5.03;;;-5.30;99.90;;;;;;5015173;28;20228;-61
2022/12/18 09:13:26;;;;;;;5.88;5.38;;;-5.50;99.90;;;;;;5013841;28;20380;-62
2022/12/18 09:15:55;;;;;;;5.63;5.22;;;-5.50;99.90;;;;;;5014229;28;20205;-61
2022/12/18 09:18:23;;;;;;;6.00;5.50;;;-5.70;99.90;;;;;;5016594;28;20229;-61
2022/12/18 09:20:51;;;;;;;5.13;4.72;;;-5.70;99.90;;;;;;5016938;28;20198;-62
2022/12/18 09:23:20;;;;;;;5.47;5.07;;;-5.80;99.90;;;;;;5014554;28;20212;-61
2022/12/18 09:25:47;;;;;;;4.88;4.57;;;-5.80;99.90;;;;;;5013519;28;20208;-61
2022/12/18 09:28:15;;;;;;;5.67;5.27;;;-5.70;99.90;;;;;;5011536;28;20231;-62
2022/12/18 09:30:44;;;;;;;5.55;5.05;;;-5.60;99.90;;;;;;5011525;28;20212;-61
2022/12/18 09:33:11;;;;;;;5.80;5.37;;;-5.50;99.90;;;;;;5011580;28;20201;-61
2022/12/18 09:35:40;;;;;;;5.57;5.17;;;-5.60;99.90;;;;;;5009759;28;20255;-61
2022/12/18 09:38:08;;;;;;;5.15;4.75;;;-5.60;99.90;;;;;;5015632;28;20232;-62
2022/12/18 09:40:42;;;;;;;5.30;4.90;;;-5.50;99.90;;;;;;5013149;28;20959;-60
2022/12/18 09:43:17;;;;;;;6.03;5.53;;;-5.40;99.90;;;;;;5011824;28;20208;-61
2022/12/18 09:45:48;;;;;;;5.28;4.93;;;-5.20;99.90;;;;;;5008520;28;20201;-62
2022/12/18 09:48:19;;;;;;;6.25;5.60;;;-5.10;99.90;;;;;;5012183;28;20288;-62
2022/12/18 09:50:47;;;;;;;6.37;5.90;;;-4.90;99.90;;;;;;5011330;28;20209;-60
2022/12/18 09:53:20;;;;;;;5.68;5.28;;;-4.70;99.90;;;;;;5011511;28;20205;-62
2022/12/18 09:55:49;;;;;;;5.70;5.30;;;-4.70;99.90;;;;;;5012723;28;20208;-61
2022/12/18 09:58:21;;;;;;;6.27;5.83;;;-4.80;99.90;;;;;;5011871;28;20235;-59
2022/12/18 10:00:48;;;;;;;6.30;5.80;;;-4.80;99.90;;;;;;5012569;28;20247;-59
2022/12/18 10:03:16;;;;;;;6.30;5.90;;;-4.70;99.90;;;;;;5016616;28;20205;-62
2022/12/18 10:05:52;;;;;;;5.88;5.47;;;-4.70;99.90;;;;;;5016797;28;20202;-62
2022/12/18 10:08:28;;;;;;;5.63;5.22;;;-4.60;99.90;;;;;;5015766;28;20311;-60
2022/12/18 10:11:02;;;;;;;5.73;5.23;;;-4.40;99.90;;;;;;5013509;28;20209;-60
2022/12/18 10:13:35;;;;;;;5.93;5.50;;;-4.30;99.90;;;;;;5010909;28;20209;-61
2022/12/18 10:16:14;;;;;;;5.83;5.43;;;-4.20;99.90;;;;;;5013313;28;20205;-62
2022/12/18 10:19:06;;;;;;;5.95;5.55;;;-4.00;99.90;;;;;;5012939;28;20806;-62
2022/12/18 10:21:40;;;;;;;6.37;5.87;;;-4.00;99.90;;;;;;5010784;28;20201;-62
2022/12/18 10:24:19;;;;;;;5.90;5.50;;;-3.90;99.90;;;;;;5012586;28;20272;-62
2022/12/18 10:26:48;;;;;;;7.17;6.67;;;-3.80;99.90;;;;;;5013326;28;20624;-61
2022/12/18 10:29:17;;;;;;;6.97;6.37;;;-3.50;99.90;;;;;;5011476;28;20217;-64
2022/12/18 10:31:44;;;;;;;6.87;6.37;;;-3.10;99.90;;;;;;5011915;28;20232;-62
2022/12/18 10:34:11;;;;;;;6.20;5.80;;;-2.70;99.90;;;;;;5012484;28;20205;-61
2022/12/18 10:36:38;;;;;;;6.87;6.37;;;-2.50;99.90;;;;;;5016761;28;20576;-62
2022/12/18 10:39:19;;;;;;;6.63;6.10;;;-2.60;99.90;;;;;;5015597;28;20239;-62
2022/12/18 10:41:47;;;;;;;6.73;6.23;;;-2.60;99.90;;;;;;5009658;28;20209;-62
2022/12/18 10:44:18;;;;;;;7.13;6.63;;;-2.80;99.90;;;;;;5015413;28;20288;-63
2022/12/18 10:46:46;;;;;;;6.80;6.30;;;-3.10;99.90;;;;;;5015685;28;20248;-63
2022/12/18 10:49:26;;;;;;;6.77;6.33;;;-3.40;99.90;;;;;;5014980;28;20229;-62
2022/12/18 10:52:06;;;;;;;7.00;6.47;;;-3.60;99.90;;;;;;5013118;28;20212;-62
2022/12/18 10:54:34;;;;;;;5.87;5.47;;;-3.60;99.90;;;;;;5013339;28;20205;-62
2022/12/18 10:57:17;;;;;;;7.10;6.60;;;-3.50;99.90;;;;;;5015871;28;20204;-61
2022/12/18 10:59:52;;;;;;;7.10;6.60;;;-3.30;99.90;;;;;;5021547;28;20244;-61
2022/12/18 11:02:28;;;;;;;7.43;6.93;;;-3.40;99.90;;;;;;5028761;28;20361;-61
2022/12/18 11:04:55;;;;;;;6.97;6.47;;;-3.60;99.90;;;;;;5016111;28;20208;-62
2022/12/18 11:07:22;;;;;;;7.63;7.03;;;-3.60;99.90;;;;;;5014641;28;20205;-61
2022/12/18 11:10:01;;;;;;;7.67;7.10;;;-3.80;99.90;;;;;;5022993;28;20286;-64
2022/12/18 11:12:30;;;;;;;7.10;6.60;;;-3.70;99.90;;;;;;5013142;28;20221;-63
2022/12/18 11:14:57;;;;;;;6.90;6.40;;;-3.70;99.90;;;;;;5018007;28;20229;-63
2022/12/18 11:17:30;;;;;;;6.57;6.07;;;-3.70;99.90;;;;;;5013068;28;20217;-63
2022/12/18 11:19:59;;;;;;;7.40;6.73;;;-3.80;99.90;;;;;;5008039;28;20197;-63
2022/12/18 11:22:28;;;;;;;6.93;6.32;;;-3.80;99.90;;;;;;5016584;28;20309;-65
2022/12/18 11:24:59;;;;;;;6.70;6.27;;;-3.70;99.90;;;;;;5016503;28;20577;-63
2022/12/18 11:27:26;;;;;;;7.57;6.97;;;-3.60;99.90;;;;;;5017614;28;20210;-62
2022/12/18 11:30:09;;;;;;;6.80;6.30;;;-3.60;99.90;;;;;;5016749;28;20228;-63
2022/12/18 11:32:38;;;;;;;6.23;5.73;;;-3.70;99.90;;;;;;5015418;28;20717;-64
2022/12/18 11:35:16;;;;;;;5.88;5.47;;;-3.60;99.90;;;;;;5010438;28;20217;-62
2022/12/18 11:37:47;;;;;;;5.60;5.20;;;-3.50;99.90;;;;;;5016747;28;20197;-64
2022/12/18 11:40:17;;;;;;;7.13;6.53;;;-3.30;99.90;;;;;;5021044;28;20277;-65
2022/12/18 11:42:50;;;;;;;6.47;6.07;;;-3.10;99.90;;;;;;5015730;28;20217;-62
2022/12/18 11:45:32;;;;;;;6.50;6.10;;;-2.90;99.90;;;;;;5013488;28;20682;-62
2022/12/18 11:48:05;;;;;;;6.57;6.07;;;-2.70;99.90;;;;;;5013005;28;20274;-63
2022/12/18 11:50:40;;;;;;;6.47;5.97;;;-2.50;99.90;;;;;;5011584;28;20583;-62
2022/12/18 11:53:12;;;;;;;6.30;5.80;;;-2.50;99.90;;;;;;5008169;28;20248;-63
2022/12/18 11:55:48;;;;;;;6.50;6.00;;;-2.40;99.90;;;;;;5006766;28;20565;-62
2022/12/18 11:58:25;;;;;;;6.37;5.97;;;-2.40;99.90;;;;;;5014519;28;20256;-63
2022/12/18 12:01:03;;;;;;;7.80;7.20;;;-2.50;99.90;;;;;;5013919;28;20610;-61
2022/12/18 12:03:47;;;;;;;6.37;5.97;;;-2.70;99.90;;;;;;5015030;28;20666;-61
2022/12/18 12:06:22;;;;;;;6.37;5.97;;;-2.60;99.90;;;;;;5013956;28;20288;-62
2022/12/18 12:09:04;;;;;;;6.97;6.47;;;-2.80;99.90;;;;;;5015067;28;20248;-66
2022/12/18 12:11:42;;;;;;;7.00;6.43;;;-2.80;99.90;;;;;;5018122;28;20267;-63
2022/12/18 12:14:27;;;;;;;6.93;6.43;;;-2.80;99.90;;;;;;5011568;28;20201;-63
2022/12/18 12:16:59;;;;;;;7.03;6.53;;;-2.80;99.90;;;;;;5015993;28;20208;-63
2022/12/18 12:19:39;;;;;;;7.03;6.53;;;-3.00;99.90;;;;;;5016416;28;20225;-62
2022/12/18 12:22:19;;;;;;;6.47;5.97;;;-3.00;99.90;;;;;;5013683;28;20210;-64
2022/12/18 12:25:00;;;;;;;7.20;6.70;;;-3.00;99.90;;;;;;5016288;28;20207;-63
2022/12/18 12:27:36;;;;;;;6.33;5.93;;;-2.90;99.90;;;;;;5018115;28;20209;-63
2022/12/18 12:30:07;;;;;;;7.87;7.27;;;-2.70;99.90;;;;;;5021700;28;20562;-63
2022/12/18 12:32:54;;;;;;;6.63;6.13;;;-2.60;99.90;;;;;;5022588;28;20263;-64
2022/12/18 12:35:35;;;;;;;6.80;6.30;;;-2.60;99.90;;;;;;5010395;28;20209;-63
2022/12/18 12:38:09;;;;;;;7.37;6.77;;;-2.70;99.90;;;;;;5008830;28;20235;-63
2022/12/18 12:40:45;;;;;;;7.03;6.53;;;-2.70;99.90;;;;;;5011124;28;20207;-64
2022/12/18 12:43:22;;;;;;;7.40;6.80;;;-2.80;99.90;;;;;;5007428;28;20285;-63
2022/12/18 12:45:52;;;;;;;6.10;5.70;;;-2.80;99.90;;;;;;5003080;28;20693;-64
2022/12/18 12:48:36;;;;;;;6.20;5.80;;;-2.80;99.90;;;;;;5011602;28;20723;-63
2022/12/18 12:51:10;;;;;;;7.40;6.80;;;-2.70;99.90;;;;;;5011152;28;20207;-63
2022/12/18 12:53:39;;;;;;;6.60;6.13;;;-2.70;99.90;;;;;;5026614;28;20296;-63
2022/12/18 12:56:07;;;;;;;6.10;5.70;;;-2.60;99.90;;;;;;5024388;28;20201;-62
2022/12/18 12:58:42;;;;;;;6.87;6.47;;;-2.50;99.90;;;;;;5026086;28;20308;-62
2022/12/18 13:01:15;;;;;;;6.67;6.20;;;-2.60;99.90;;;;;;5018373;28;20211;-64
2022/12/18 13:03:57;;;;;;;6.73;6.23;;;-2.70;99.90;;;;;;5016829;28;20252;-62
2022/12/18 13:06:37;;;;;;;7.00;6.50;;;-2.80;99.90;;;;;;5016654;28;20240;-64
2022/12/18 13:09:04;;;;;;;6.37;5.87;;;-2.70;99.90;;;;;;5018081;28;20367;-63
2022/12/18 13:14:32;;;;;;;6.43;5.97;;;-2.60;99.90;;;;;;5009734;28;20360;-62